Aviation Digital Data Service (ADDS)

Output produced by METARs form (0510 UTC 19 February 2019)
found at http://www.aviationweather.gov/metar/data/
 
Forecast for: KRVS (TULSA , OK, US)
Text: KRVS 182322Z 1900/1924 03009KT P6SM SCT110 OVC200
Forecast period: 0000 to 1800 UTC 19 February 2019
Forecast type: FROM: standard forecast or significant change
Winds: from the NNE (30 degrees) at 10 MPH (9 knots; 4.6 m/s)
Visibility: 6 or more miles 10+ km)
Ceiling: 20000 feet AGL
Clouds: scattered clouds at 11000 feet AGL
overcast cloud deck at 20000 feet AGL
Weather: no significant weather forecast for this period
Text: FM191800 06010KT 5SM -RAPL BR OVC050
Forecast period: 1800 UTC 19 February 2019 to 0000 UTC 20 February 2019
Forecast type: FROM: standard forecast or significant change
Winds: from the ENE (60 degrees) at 12 MPH (10 knots; 5.1 m/s)
Visibility: 5 miles (8 km)
Ceiling: 5000 feet AGL
Clouds: overcast cloud deck at 5000 feet AGL
Weather: -RA -PL BR  (light rain, light ice pellets, mist)
Text: TEMPO 1919/1923 2SM -SNPL BR OVC015
Forecast period: 1900 to 2300 UTC 19 February 2019
Forecast type: TEMPORARY: The following changes expected for less than half the time period
Visibility: 2.00 miles (3.22 km)
Ceiling: 1500 feet AGL
Clouds: overcast cloud deck at 1500 feet AGL
Weather: -SN -PL BR  (light snow, light ice pellets, mist)